createdAt,value
2018-10-03T11:33:08.398Z,99.90
2018-10-03T11:38:32.596Z,54.40
2018-10-03T11:43:52.101Z,53.50
2018-10-03T11:49:04.003Z,53.60
2018-10-03T11:54:19.105Z,54.90
2018-10-03T11:59:31.161Z,51.70
2018-10-03T12:04:37.317Z,49.60
2018-10-03T12:09:40.754Z,49.80
2018-10-03T12:14:49.753Z,48.70
2018-10-03T12:19:51.129Z,48.20
2018-10-03T12:24:55.364Z,45.60
2018-10-03T12:29:53.801Z,46.00
2018-10-03T12:34:55.215Z,45.60
2018-10-03T12:39:55.054Z,46.10
2018-10-03T12:44:53.541Z,44.90
2018-10-03T12:49:50.761Z,43.30
2018-10-03T12:54:50.347Z,45.10
2018-10-03T12:59:47.550Z,45.30
2018-10-03T13:04:44.448Z,44.50
2018-10-03T13:09:43.264Z,43.40
2018-10-03T13:14:44.040Z,43.80
2018-10-03T13:19:45.036Z,44.70
2018-10-03T13:24:47.773Z,45.20
2018-10-03T13:29:48.051Z,46.50
2018-10-03T13:34:46.266Z,46.40
2018-10-03T13:39:47.404Z,45.60
2018-10-03T13:44:51.577Z,45.40
2018-10-03T13:50:03.326Z,46.70
2018-10-03T13:55:08.909Z,47.30
2018-10-03T14:00:09.468Z,47.20
2018-10-03T14:05:16.243Z,46.10
2018-10-03T14:10:24.797Z,46.20
2018-10-03T14:15:25.149Z,45.40
2018-10-03T14:20:26.054Z,45.60
2018-10-03T14:25:31.908Z,44.70
2018-10-03T14:30:41.198Z,45.20
2018-10-03T14:35:48.243Z,46.10
2018-10-03T14:40:57.405Z,46.50
2018-10-03T14:46:14.523Z,47.60
2018-10-03T14:51:37.383Z,49.00
2018-10-03T14:56:59.636Z,49.50
2018-10-03T15:12:55.483Z,49.60
2018-10-03T15:18:21.652Z,50.70
2018-10-03T15:23:39.188Z,50.00
2018-10-03T16:26:25.388Z,50.50
2018-10-03T16:31:53.150Z,54.30
